createdAt,value
2022-10-23T00:00:39.476Z,98622.06
2022-10-23T00:13:28.897Z,98627.00
2022-10-23T00:16:08.946Z,98631.47
2022-10-23T00:18:42.086Z,98630.63
2022-10-23T00:21:18.949Z,98639.59
2022-10-23T00:23:53.246Z,98634.38
2022-10-23T00:26:27.644Z,98642.41
2022-10-23T00:29:02.993Z,98642.41
2022-10-23T00:41:50.971Z,98643.69
2022-10-23T00:45:18.966Z,98642.84
2022-10-23T00:47:53.685Z,98641.97
2022-10-23T00:50:30.924Z,98636.84
2022-10-23T00:53:05.321Z,98648.28
2022-10-23T00:55:39.940Z,98647.44
2022-10-23T01:09:01.927Z,98657.38
2022-10-23T01:11:46.830Z,98662.00
2022-10-23T01:14:37.958Z,98662.94
2022-10-23T01:17:23.286Z,98659.31
2022-10-23T01:20:20.940Z,98650.53
2022-10-23T01:33:50.936Z,98652.47
2022-10-23T01:36:31.805Z,98640.94
2022-10-23T01:39:17.929Z,98645.50
2022-10-23T01:41:57.237Z,98643.81
2022-10-23T01:44:46.971Z,98637.63
2022-10-23T01:47:27.049Z,98634.09
2022-10-23T01:50:17.941Z,98637.72
2022-10-23T02:00:27.902Z,98633.47
2022-10-23T02:03:08.927Z,98638.81
2022-10-23T02:05:44.837Z,98638.81
2022-10-23T02:08:18.930Z,98638.81
2022-10-23T02:11:02.771Z,98642.44
2022-10-23T02:13:51.925Z,98645.22
2022-10-23T02:27:20.958Z,98640.97
2022-10-23T02:30:05.554Z,98639.97
2022-10-23T02:32:53.985Z,98642.63
2022-10-23T02:35:27.374Z,98638.28
2022-10-23T02:38:29.937Z,98640.97
2022-10-23T02:55:18.885Z,98625.38
2022-10-23T02:58:09.941Z,98633.38
2022-10-23T03:00:51.952Z,98628.03
2022-10-23T03:03:38.950Z,98617.44
2022-10-23T03:06:13.930Z,98621.94
2022-10-23T03:09:00.934Z,98621.19
2022-10-23T03:22:11.949Z,98628.34
2022-10-23T03:24:45.353Z,98622.13
2022-10-23T03:27:18.992Z,98621.19
2022-10-23T03:29:54.502Z,98618.50
2022-10-23T03:32:27.924Z,98615.94
2022-10-23T03:35:01.016Z,98618.75
2022-10-23T03:47:59.880Z,98631.34
2022-10-23T03:50:41.934Z,98634.97
2022-10-23T03:53:15.010Z,98636.69
2022-10-23T03:55:41.622Z,98629.63
2022-10-23T03:58:23.934Z,98630.50
2022-10-23T04:00:57.123Z,98626.94
2022-10-23T04:14:17.881Z,98639.22
2022-10-23T04:16:57.933Z,98634.84
2022-10-23T04:19:31.225Z,98636.69
2022-10-23T04:22:04.930Z,98636.69
2022-10-23T04:24:38.925Z,98638.59
2022-10-23T04:27:11.910Z,98641.38
2022-10-23T04:29:47.045Z,98639.66
2022-10-23T04:42:35.890Z,98638.28
2022-10-23T04:45:17.915Z,98630.47
2022-10-23T04:47:51.126Z,98629.63
2022-10-23T04:50:17.764Z,98629.75
2022-10-23T04:53:17.894Z,98630.72
2022-10-23T05:07:46.085Z,98621.00
2022-10-23T05:10:38.540Z,98618.50
2022-10-23T05:13:20.949Z,98613.19
2022-10-23T05:15:54.484Z,98617.56
2022-10-23T05:18:33.909Z,98625.56
2022-10-23T05:21:14.268Z,98623.78
2022-10-23T05:34:33.891Z,98630.91
2022-10-23T05:37:19.914Z,98626.53
2022-10-23T05:40:03.389Z,98629.31
2022-10-23T05:42:47.454Z,98620.44
2022-10-23T05:45:30.469Z,98626.88
2022-10-23T05:48:35.001Z,98635.84
2022-10-23T05:51:21.423Z,98641.16
2022-10-23T06:01:14.968Z,98642.25
2022-10-23T06:04:00.440Z,98641.59
2022-10-23T06:06:57.904Z,98663.59
2022-10-23T06:09:31.770Z,98656.53
2022-10-23T06:12:08.540Z,98666.34
2022-10-23T06:14:45.279Z,98661.88
2022-10-23T06:28:02.886Z,98644.25
2022-10-23T06:30:44.907Z,98648.84
2022-10-23T06:33:18.462Z,98655.91
2022-10-23T06:35:51.914Z,98653.09
2022-10-23T06:38:25.333Z,98656.72
2022-10-23T06:41:02.903Z,98660.16
2022-10-23T06:54:46.910Z,98667.22
2022-10-23T06:57:24.525Z,98658.25
2022-10-23T07:00:04.893Z,98659.97
2022-10-23T07:02:51.014Z,98659.97
2022-10-23T07:05:30.904Z,98658.91
2022-10-23T07:08:04.825Z,98662.41
2022-10-23T07:10:46.915Z,98665.09
2022-10-23T07:23:55.937Z,98675.16
2022-10-23T07:26:25.075Z,98683.03
2022-10-23T07:29:04.922Z,98695.31
2022-10-23T07:31:37.950Z,98690.75
2022-10-23T07:34:49.895Z,98686.13
2022-10-23T07:48:19.593Z,98687.13
2022-10-23T07:51:02.538Z,98678.97
2022-10-23T07:53:48.881Z,98680.69
2022-10-23T07:56:47.425Z,98677.81
2022-10-23T07:59:35.831Z,98676.84
2022-10-23T08:16:17.877Z,98681.88
2022-10-23T08:19:11.904Z,98687.09
2022-10-23T08:21:46.967Z,98683.47
2022-10-23T08:24:20.894Z,98681.56
2022-10-23T08:26:54.051Z,98676.84
2022-10-23T08:29:29.909Z,98670.44
2022-10-23T08:42:46.032Z,98676.06
2022-10-23T08:45:30.558Z,98671.47
2022-10-23T08:48:33.982Z,98668.69
2022-10-23T08:51:35.365Z,98681.97
2022-10-23T08:54:22.923Z,98675.75
2022-10-23T09:11:09.867Z,98665.47
2022-10-23T09:14:35.927Z,98669.53
2022-10-23T09:17:23.424Z,98662.00
2022-10-23T09:22:54.733Z,98657.81
2022-10-23T09:25:32.885Z,98650.41
2022-10-23T09:35:31.864Z,98650.56
2022-10-23T09:38:11.878Z,98660.81
2022-10-23T09:40:47.142Z,98661.31
2022-10-23T09:43:24.918Z,98664.28
2022-10-23T09:46:05.455Z,98664.78
2022-10-23T09:48:46.986Z,98662.63
2022-10-23T09:51:22.338Z,98655.97
2022-10-23T10:04:10.853Z,98655.22
2022-10-23T10:07:03.914Z,98652.06
2022-10-23T10:09:36.992Z,98643.66
2022-10-23T10:12:47.918Z,98644.03
2022-10-23T10:15:32.045Z,98644.28
2022-10-23T10:28:59.886Z,98641.16
2022-10-23T10:31:58.902Z,98642.38
2022-10-23T10:34:48.666Z,98635.44
2022-10-23T10:37:49.364Z,98632.13
2022-10-23T10:40:32.773Z,98618.22
2022-10-23T10:43:35.881Z,98627.47
2022-10-23T10:46:26.946Z,98623.31
2022-10-23T10:56:07.886Z,98620.69
2022-10-23T10:58:48.092Z,98612.28
2022-10-23T11:01:36.997Z,98614.59
2022-10-23T11:04:23.438Z,98604.44
2022-10-23T11:07:05.904Z,98612.22
2022-10-23T11:09:41.568Z,98603.22
2022-10-23T11:22:42.082Z,98593.56
2022-10-23T11:29:08.762Z,98575.69
2022-10-23T11:32:10.902Z,98583.09
2022-10-23T11:35:16.359Z,98578.31
2022-10-23T11:48:56.847Z,98557.44
2022-10-23T11:51:41.003Z,98551.09
2022-10-23T11:54:23.641Z,98545.47
2022-10-23T11:57:17.947Z,98539.94
2022-10-23T11:59:54.587Z,98537.13
2022-10-23T12:02:39.920Z,98525.38
2022-10-23T12:05:32.425Z,98513.66
2022-10-23T12:15:47.879Z,98503.16
2022-10-23T12:18:22.918Z,98505.84
2022-10-23T12:21:00.877Z,98504.88
2022-10-23T12:24:02.343Z,98498.66
2022-10-23T12:27:12.882Z,98493.44
2022-10-23T12:30:16.375Z,98490.75
2022-10-23T12:43:31.867Z,98483.09
2022-10-23T12:46:33.870Z,98470.78
2022-10-23T12:49:16.058Z,98461.00
2022-10-23T12:52:02.944Z,98463.84
2022-10-23T12:54:39.740Z,98461.25
2022-10-23T13:11:01.880Z,98448.25
2022-10-23T13:13:41.119Z,98443.72
2022-10-23T13:16:22.889Z,98440.06
2022-10-23T13:18:55.954Z,98433.56
2022-10-23T13:21:32.924Z,98439.53
2022-10-23T13:24:21.400Z,98431.31
2022-10-23T13:37:32.884Z,98427.78
2022-10-23T13:40:35.897Z,98423.13
2022-10-23T13:43:15.912Z,98427.78
2022-10-23T13:45:55.957Z,98424.53
2022-10-23T13:48:29.445Z,98429.31
2022-10-23T13:51:17.870Z,98422.53
2022-10-23T14:04:30.871Z,98411.72
2022-10-23T14:07:03.921Z,98410.25
2022-10-23T14:09:30.453Z,98410.41
2022-10-23T14:12:10.884Z,98406.97
2022-10-23T14:14:43.837Z,98408.84
2022-10-23T14:31:10.867Z,98411.97
2022-10-23T14:33:45.861Z,98408.28
2022-10-23T14:39:12.985Z,98397.84
2022-10-23T14:41:45.898Z,98393.06
2022-10-23T14:44:18.954Z,98398.72
2022-10-23T14:57:08.847Z,98389.28
2022-10-23T14:59:49.329Z,98390.13
2022-10-23T15:02:21.928Z,98384.06
2022-10-23T15:04:48.505Z,98386.44
2022-10-23T15:07:28.882Z,98371.75
2022-10-23T15:10:10.489Z,98380.59
2022-10-23T15:23:09.843Z,98376.81
2022-10-23T15:25:49.890Z,98367.84
2022-10-23T15:28:23.056Z,98368.66
2022-10-23T15:30:49.654Z,98351.41
2022-10-23T15:33:30.919Z,98351.91
2022-10-23T15:36:04.662Z,98355.13
2022-10-23T15:52:19.901Z,98351.69
2022-10-23T15:54:58.402Z,98340.50
2022-10-23T15:57:38.905Z,98337.13
2022-10-23T16:00:18.137Z,98326.66
2022-10-23T16:03:01.126Z,98327.63
2022-10-23T16:05:35.316Z,98339.59
2022-10-23T16:18:25.854Z,98357.47
2022-10-23T16:21:05.870Z,98352.09
2022-10-23T16:23:38.917Z,98343.31
2022-10-23T16:26:05.815Z,98353.19
2022-10-23T16:28:47.299Z,98339.09
2022-10-23T16:31:24.208Z,98329.47
2022-10-23T16:44:13.848Z,98311.94
2022-10-23T16:47:19.879Z,98316.44
2022-10-23T16:49:52.949Z,98310.25
2022-10-23T16:52:19.517Z,98300.50
2022-10-23T16:54:59.853Z,98308.53
2022-10-23T17:11:39.848Z,98302.84
2022-10-23T17:14:22.871Z,98292.97
2022-10-23T17:16:59.406Z,98303.72
2022-10-23T17:19:45.066Z,98288.59
2022-10-23T17:22:19.389Z,98297.47
2022-10-23T17:24:53.861Z,98292.97
2022-10-23T17:38:04.890Z,98252.06
2022-10-23T17:40:39.055Z,98256.69
2022-10-23T17:43:11.895Z,98241.34
2022-10-23T17:45:45.027Z,98245.00
2022-10-23T17:48:18.877Z,98238.06
2022-10-23T17:51:02.417Z,98245.97
2022-10-23T18:04:00.841Z,98243.56
2022-10-23T18:06:47.853Z,98239.03
2022-10-23T18:09:22.384Z,98235.53
2022-10-23T18:11:58.117Z,98240.00
2022-10-23T18:14:33.296Z,98231.13
2022-10-23T18:17:14.878Z,98232.13
2022-10-23T18:19:51.659Z,98230.31
2022-10-23T18:32:46.024Z,98210.81
2022-10-23T18:35:20.891Z,98201.94
2022-10-23T18:37:53.995Z,98194.75
2022-10-23T18:40:23.136Z,98196.59
2022-10-23T18:43:11.622Z,98188.53
2022-10-23T18:45:47.961Z,98187.69
2022-10-23T18:58:36.842Z,98178.53
2022-10-23T19:01:16.956Z,98168.53
2022-10-23T19:03:50.238Z,98159.50
2022-10-23T19:06:23.898Z,98168.25
2022-10-23T19:08:57.652Z,98155.13
2022-10-23T19:11:33.874Z,98140.88
2022-10-23T19:24:50.853Z,98132.44
2022-10-23T19:27:25.373Z,98125.66
2022-10-23T19:30:00.866Z,98133.41
2022-10-23T19:32:34.174Z,98130.72
2022-10-23T19:35:00.725Z,98124.38
2022-10-23T19:37:41.004Z,98126.09
2022-10-23T19:40:16.613Z,98128.03
2022-10-23T19:53:03.840Z,98129.91
2022-10-23T19:55:38.879Z,98140.63
2022-10-23T19:58:11.952Z,98137.94
2022-10-23T20:00:38.614Z,98143.28
2022-10-23T20:03:18.872Z,98145.25
2022-10-23T20:05:51.974Z,98147.09
2022-10-23T20:18:40.841Z,98108.84
2022-10-23T20:21:22.579Z,98096.56
2022-10-23T20:24:04.944Z,98097.16
2022-10-23T20:26:46.852Z,98092.78
2022-10-23T20:29:20.957Z,98083.91
2022-10-23T20:45:24.880Z,98092.34
2022-10-23T20:47:57.941Z,98066.50
2022-10-23T20:50:24.504Z,98069.19
2022-10-23T20:53:11.877Z,98067.50
2022-10-23T20:55:45.017Z,98062.13
2022-10-23T20:58:11.561Z,98059.44
2022-10-23T21:00:53.876Z,98057.66
2022-10-23T21:11:15.839Z,98038.41
2022-10-23T21:13:55.870Z,98023.22
2022-10-23T21:16:35.249Z,98030.38
2022-10-23T21:19:17.865Z,98030.28
2022-10-23T21:21:50.914Z,98027.59
2022-10-23T21:24:17.594Z,98024.91
2022-10-23T21:39:56.854Z,98080.19
2022-10-23T21:45:29.870Z,98092.63
2022-10-23T21:48:03.353Z,98097.97
2022-10-23T21:50:36.895Z,98085.56
2022-10-23T22:04:29.882Z,98080.19
2022-10-23T22:07:04.449Z,98057.91
2022-10-23T22:09:39.870Z,98057.06
2022-10-23T22:12:12.932Z,98099.06
2022-10-23T22:14:46.836Z,98110.66
2022-10-23T22:17:19.921Z,98121.38
2022-10-23T22:19:54.846Z,98123.06
2022-10-23T22:33:05.136Z,98149.34
2022-10-23T22:35:39.939Z,98149.34
2022-10-23T22:38:12.849Z,98146.66
2022-10-23T22:40:46.825Z,98144.13
2022-10-23T22:43:19.859Z,98139.88
2022-10-23T22:45:52.917Z,98151.47
2022-10-23T22:58:42.822Z,98190.59
2022-10-23T23:01:29.895Z,98192.41
2022-10-23T23:04:13.957Z,98213.00
2022-10-23T23:07:03.871Z,98198.16
2022-10-23T23:09:38.958Z,98201.13
2022-10-23T23:25:55.858Z,98196.00
2022-10-23T23:28:28.901Z,98179.09
2022-10-23T23:31:10.837Z,98150.47
2022-10-23T23:33:45.327Z,98123.69
2022-10-23T23:36:25.559Z,98132.59
2022-10-23T23:38:59.563Z,98135.38
2022-10-23T23:41:34.886Z,98134.41
2022-10-23T23:51:30.804Z,98144.41
2022-10-23T23:54:10.868Z,98135.53
2022-10-23T23:56:46.872Z,98130.31
2022-10-23T23:59:25.849Z,98132.97
